Time;durP1;ratioP1;P1;durP2;ratioP2;P2;SDS_P1;SDS_P2;PMS_P1;PMS_P2;Temp;Humidity;BMP_temperature;BMP_pressure;BME280_temperature;BME280_humidity;BME280_pressure;Samples;Min_cycle;Max_cycle;Signal;HPM_P1;HPM_P2
2021/06/18 00:01:08;;;;;;;11.13;7.88;;;20.90;99.90;;;;;;5026322;28;20196;-73
2021/06/18 00:03:34;;;;;;;8.80;7.72;;;20.40;99.90;;;;;;5025510;28;20299;-73
2021/06/18 00:06:02;;;;;;;8.77;7.97;;;20.20;99.90;;;;;;5026571;28;20279;-73
2021/06/18 00:08:29;;;;;;;9.05;8.10;;;20.40;99.90;;;;;;5030218;28;20204;-74
2021/06/18 00:10:56;;;;;;;9.38;8.00;;;20.50;99.90;;;;;;5029935;28;20242;-73
2021/06/18 00:13:23;;;;;;;11.93;8.20;;;20.40;99.90;;;;;;5031284;28;20584;-73
2021/06/18 00:15:49;;;;;;;9.70;8.23;;;20.30;99.90;;;;;;5012350;28;20216;-74
2021/06/18 00:18:18;;;;;;;10.18;8.70;;;20.20;99.90;;;;;;5021312;28;20207;-73
2021/06/18 00:20:45;;;;;;;10.82;8.68;;;20.10;99.90;;;;;;5013183;28;20201;-73
2021/06/18 00:23:11;;;;;;;10.98;9.07;;;20.10;99.90;;;;;;5022880;28;20193;-73
2021/06/18 00:25:38;;;;;;;12.35;8.77;;;20.30;99.90;;;;;;5028363;28;20200;-73
2021/06/18 00:28:06;;;;;;;10.65;9.18;;;20.30;99.90;;;;;;5016231;28;20581;-74
2021/06/18 00:30:33;;;;;;;10.13;8.20;;;20.50;99.90;;;;;;5029804;28;20223;-73
2021/06/18 00:33:00;;;;;;;13.23;8.30;;;20.50;99.90;;;;;;5017047;28;20208;-73
2021/06/18 00:35:28;;;;;;;11.52;8.85;;;20.10;99.90;;;;;;5027311;28;20215;-74
2021/06/18 00:37:55;;;;;;;9.70;8.68;;;19.90;99.90;;;;;;5033907;28;20210;-73
2021/06/18 00:40:22;;;;;;;10.10;8.75;;;20.10;99.90;;;;;;5019964;28;20210;-73
2021/06/18 00:42:49;;;;;;;10.02;8.65;;;20.30;99.90;;;;;;5025283;28;20584;-73
2021/06/18 00:45:16;;;;;;;11.30;8.45;;;20.40;99.90;;;;;;5021415;28;20650;-74
2021/06/18 00:47:48;;;;;;;11.70;8.95;;;20.30;99.90;;;;;;5020108;28;20575;-74
2021/06/18 00:50:16;;;;;;;10.68;9.20;;;20.20;99.90;;;;;;5014779;28;20560;-74
2021/06/18 00:52:44;;;;;;;11.27;8.32;;;20.40;99.90;;;;;;5031393;28;20698;-73
2021/06/18 00:55:12;;;;;;;9.85;8.82;;;20.60;99.90;;;;;;5029809;28;20212;-73
2021/06/18 00:57:39;;;;;;;13.85;9.77;;;20.90;99.90;;;;;;5027966;28;20280;-74
2021/06/18 01:00:10;;;;;;;14.63;10.10;;;21.20;99.90;;;;;;5020268;28;20566;-74
2021/06/18 01:02:37;;;;;;;13.30;9.07;;;21.20;99.90;;;;;;5025953;28;20511;-74
2021/06/18 01:05:05;;;;;;;12.98;9.05;;;21.20;99.90;;;;;;5028385;28;20537;-74
2021/06/18 01:07:34;;;;;;;11.85;8.40;;;21.30;99.90;;;;;;5031124;28;20230;-73
2021/06/18 01:10:15;;;;;;;9.02;8.23;;;21.40;99.90;;;;;;5031126;28;20227;-74
2021/06/18 01:12:49;;;;;;;8.70;7.80;;;21.40;99.90;;;;;;5029810;28;20666;-73
2021/06/18 01:15:23;;;;;;;9.18;8.30;;;21.30;99.90;;;;;;5021358;28;20220;-74
2021/06/18 01:18:00;;;;;;;11.75;8.63;;;21.10;99.90;;;;;;5026473;28;20208;-74
2021/06/18 01:20:43;;;;;;;11.77;8.95;;;21.10;99.90;;;;;;5033639;28;20484;-74
2021/06/18 01:23:21;;;;;;;11.10;9.00;;;21.10;99.90;;;;;;5024554;28;20200;-74
2021/06/18 01:25:52;;;;;;;15.63;11.27;;;21.00;99.90;;;;;;5028035;28;20279;-73
2021/06/18 01:28:42;;;;;;;13.77;10.77;;;21.20;99.90;;;;;;5016830;28;20201;-73
2021/06/18 01:31:13;;;;;;;14.90;9.98;;;21.10;99.90;;;;;;5031796;28;20204;-74
2021/06/18 01:33:43;;;;;;;15.32;10.15;;;21.10;99.90;;;;;;5017342;28;20224;-73
2021/06/18 01:36:14;;;;;;;12.60;9.95;;;21.00;99.90;;;;;;5012853;28;20228;-73
2021/06/18 01:38:45;;;;;;;11.30;9.48;;;20.90;99.90;;;;;;5030377;28;20273;-73
2021/06/18 01:41:16;;;;;;;9.88;8.60;;;20.90;99.90;;;;;;5032905;28;20207;-74
2021/06/18 01:43:45;;;;;;;10.07;8.35;;;21.00;99.90;;;;;;5028497;28;20214;-74
2021/06/18 01:46:15;;;;;;;8.90;8.00;;;20.90;99.90;;;;;;5032503;28;20203;-74
2021/06/18 01:48:47;;;;;;;11.57;8.35;;;21.00;99.90;;;;;;5017430;28;20208;-73
2021/06/18 01:51:15;;;;;;;9.40;8.40;;;20.70;99.90;;;;;;5016261;28;20204;-73
2021/06/18 01:53:44;;;;;;;9.43;8.43;;;20.80;99.90;;;;;;5014024;28;20204;-74
2021/06/18 01:56:15;;;;;;;9.77;8.63;;;20.90;99.90;;;;;;5019966;28;20582;-73
2021/06/18 01:58:46;;;;;;;12.57;8.05;;;21.00;99.90;;;;;;5031537;28;20295;-73
2021/06/18 02:01:14;;;;;;;9.10;7.90;;;20.90;99.90;;;;;;5029485;28;20558;-73
2021/06/18 02:03:44;;;;;;;10.85;7.88;;;20.80;99.90;;;;;;5030841;28;20556;-73
2021/06/18 02:06:12;;;;;;;10.55;8.55;;;20.90;99.90;;;;;;5028747;28;20215;-74
2021/06/18 02:08:40;;;;;;;11.77;8.50;;;20.90;99.90;;;;;;5018592;28;20199;-74
2021/06/18 02:11:09;;;;;;;9.43;8.40;;;20.90;99.90;;;;;;5030342;28;20662;-74
2021/06/18 02:13:36;;;;;;;10.80;8.70;;;20.90;99.90;;;;;;5028292;28;20199;-75
2021/06/18 02:16:08;;;;;;;9.85;8.02;;;21.00;99.90;;;;;;5032498;28;20641;-75
2021/06/18 02:18:37;;;;;;;9.88;7.95;;;21.00;99.90;;;;;;5030592;28;20330;-75
2021/06/18 02:21:06;;;;;;;10.52;8.40;;;20.80;99.90;;;;;;5028426;28;20571;-74
2021/06/18 02:23:34;;;;;;;10.98;8.65;;;20.80;99.90;;;;;;5033004;28;20690;-73
2021/06/18 02:26:03;;;;;;;10.45;8.35;;;20.60;99.90;;;;;;5024608;28;20195;-73
2021/06/18 02:28:30;;;;;;;11.18;8.32;;;20.70;99.90;;;;;;5024649;28;20200;-73
2021/06/18 02:30:57;;;;;;;8.88;7.97;;;20.70;99.90;;;;;;5016374;28;20208;-73
2021/06/18 02:33:25;;;;;;;9.63;8.23;;;20.80;99.90;;;;;;5024174;28;20221;-73
2021/06/18 02:35:52;;;;;;;8.95;7.85;;;20.80;99.90;;;;;;5024194;28;20223;-73
2021/06/18 02:38:19;;;;;;;8.88;8.00;;;20.50;99.90;;;;;;5018052;28;20208;-73
2021/06/18 02:40:47;;;;;;;10.65;8.43;;;20.70;99.90;;;;;;5019944;28;20212;-73
2021/06/18 02:43:14;;;;;;;9.90;8.18;;;20.50;99.90;;;;;;5018074;28;20200;-73
2021/06/18 02:45:41;;;;;;;12.00;8.18;;;20.50;99.90;;;;;;5021456;28;20210;-73
2021/06/18 02:48:14;;;;;;;15.85;8.18;;;20.60;99.90;;;;;;5027011;28;20203;-73
2021/06/18 02:50:47;;;;;;;13.65;8.57;;;20.40;99.90;;;;;;5029562;28;20200;-73
2021/06/18 02:53:21;;;;;;;10.15;8.52;;;20.30;99.90;;;;;;5028204;28;20302;-73
2021/06/18 02:55:52;;;;;;;8.82;7.90;;;20.30;99.90;;;;;;5030172;28;20576;-73
2021/06/18 02:58:23;;;;;;;10.30;8.90;;;20.20;99.90;;;;;;5011757;28;20200;-73
2021/06/18 03:00:52;;;;;;;9.65;8.05;;;20.10;99.90;;;;;;5017768;28;20678;-73
2021/06/18 03:03:25;;;;;;;12.65;8.13;;;20.30;99.90;;;;;;5023882;28;20650;-73
2021/06/18 03:05:56;;;;;;;12.68;8.80;;;20.30;99.90;;;;;;5031391;28;20678;-73
2021/06/18 03:08:29;;;;;;;8.60;7.63;;;20.20;99.90;;;;;;5026656;28;20195;-73
2021/06/18 03:10:56;;;;;;;10.55;8.45;;;20.30;99.90;;;;;;5028406;28;20682;-73
2021/06/18 03:13:27;;;;;;;30.98;23.60;;;20.20;99.90;;;;;;5020832;28;20196;-73
2021/06/18 03:15:54;;;;;;;14.35;10.02;;;20.20;99.90;;;;;;5021551;28;20228;-73
2021/06/18 03:18:24;;;;;;;8.68;7.82;;;20.30;99.90;;;;;;5030573;28;20207;-73
2021/06/18 03:20:55;;;;;;;12.77;9.32;;;20.30;99.90;;;;;;5030248;28;20676;-73
2021/06/18 03:23:24;;;;;;;13.43;8.05;;;20.30;99.90;;;;;;5031772;28;20261;-73
2021/06/18 03:25:51;;;;;;;10.05;7.90;;;20.20;99.90;;;;;;5031367;28;20210;-74
2021/06/18 03:28:20;;;;;;;9.98;8.15;;;20.30;99.90;;;;;;5011846;28;20210;-73
2021/06/18 03:30:48;;;;;;;9.27;8.35;;;20.20;99.90;;;;;;5011515;28;20212;-73
2021/06/18 03:33:16;;;;;;;11.18;8.68;;;20.30;99.90;;;;;;5012362;28;20210;-73
2021/06/18 03:35:44;;;;;;;12.20;8.80;;;20.40;99.90;;;;;;5011854;28;20220;-73
2021/06/18 03:38:13;;;;;;;12.23;8.82;;;20.40;99.90;;;;;;5012490;28;20295;-73
2021/06/18 03:40:41;;;;;;;9.40;8.40;;;20.60;99.90;;;;;;5010564;28;20208;-73
2021/06/18 03:43:09;;;;;;;11.05;8.65;;;20.60;99.90;;;;;;5011893;28;20208;-73
2021/06/18 03:45:39;;;;;;;11.82;8.38;;;20.60;99.90;;;;;;5011578;28;20547;-73
2021/06/18 03:48:09;;;;;;;18.48;8.85;;;20.60;99.90;;;;;;5021670;28;20207;-73
2021/06/18 03:50:36;;;;;;;15.00;8.40;;;20.50;99.90;;;;;;5030547;28;20591;-73
2021/06/18 03:53:03;;;;;;;11.48;8.32;;;20.40;99.90;;;;;;5031433;28;20295;-73
2021/06/18 03:55:32;;;;;;;9.65;8.65;;;20.60;99.90;;;;;;5013126;28;20227;-73
2021/06/18 03:58:01;;;;;;;11.00;8.05;;;20.80;99.90;;;;;;5031482;28;20668;-73
2021/06/18 04:00:28;;;;;;;10.93;8.70;;;20.90;99.90;;;;;;5028516;28;20650;-73
2021/06/18 04:02:56;;;;;;;11.70;9.00;;;20.70;99.90;;;;;;5026579;28;20218;-73
2021/06/18 04:05:25;;;;;;;11.43;8.98;;;20.90;99.90;;;;;;5027071;28;20205;-73
2021/06/18 04:07:54;;;;;;;14.90;10.45;;;21.00;99.90;;;;;;5027835;28;20206;-73
2021/06/18 04:10:21;;;;;;;14.13;9.85;;;21.10;99.90;;;;;;5024394;28;20203;-73
2021/06/18 04:12:51;;;;;;;11.85;8.95;;;22.20;99.90;;;;;;5022145;28;20204;-73
2021/06/18 04:15:18;;;;;;;9.43;8.50;;;22.80;99.90;;;;;;5029081;28;20208;-73
2021/06/18 04:17:46;;;;;;;13.05;9.02;;;23.30;99.90;;;;;;5030091;28;20206;-73
2021/06/18 04:20:14;;;;;;;14.90;8.82;;;23.50;99.90;;;;;;5030164;28;20208;-73
2021/06/18 04:22:41;;;;;;;10.98;8.00;;;23.40;99.90;;;;;;5028130;28;20199;-73
2021/06/18 04:25:09;;;;;;;10.88;8.10;;;22.60;99.90;;;;;;5029482;28;20204;-73
2021/06/18 04:27:36;;;;;;;9.95;8.27;;;22.30;99.90;;;;;;5020244;28;20200;-73
2021/06/18 04:30:07;;;;;;;9.02;8.13;;;21.90;99.90;;;;;;5024517;28;20303;-73
2021/06/18 04:32:33;;;;;;;11.85;8.95;;;21.50;99.90;;;;;;5029492;28;20291;-73
2021/06/18 04:35:00;;;;;;;12.85;8.30;;;21.30;99.90;;;;;;5030473;28;20214;-73
2021/06/18 04:37:28;;;;;;;11.27;8.10;;;21.90;99.90;;;;;;5030359;28;20227;-73
2021/06/18 04:39:55;;;;;;;12.05;7.53;;;22.30;99.90;;;;;;5030340;28;20203;-73
2021/06/18 04:42:22;;;;;;;11.40;7.38;;;21.90;99.90;;;;;;5031832;28;20188;-73
2021/06/18 04:44:49;;;;;;;10.13;8.75;;;21.90;99.90;;;;;;5031257;28;20680;-73
2021/06/18 04:47:18;;;;;;;11.35;8.85;;;21.80;99.90;;;;;;5031316;28;20291;-73
2021/06/18 04:49:46;;;;;;;11.20;8.48;;;21.90;99.90;;;;;;5024616;28;20204;-74
2021/06/18 04:52:13;;;;;;;11.02;7.95;;;21.90;99.90;;;;;;5023570;28;20205;-74
2021/06/18 04:54:40;;;;;;;9.77;8.43;;;22.20;99.90;;;;;;5024577;28;20840;-73
2021/06/18 04:57:07;;;;;;;10.88;7.95;;;22.10;99.90;;;;;;5025067;28;20265;-73
2021/06/18 04:59:37;;;;;;;11.80;7.93;;;22.30;99.90;;;;;;5025045;28;20215;-73
2021/06/18 05:02:04;;;;;;;12.48;7.78;;;22.30;99.90;;;;;;5026066;28;20263;-73
2021/06/18 05:04:32;;;;;;;10.48;8.20;;;22.50;99.90;;;;;;5020049;28;20210;-73
2021/06/18 05:06:59;;;;;;;14.77;8.90;;;22.70;99.90;;;;;;5029074;28;20200;-73
2021/06/18 05:09:26;;;;;;;12.45;8.40;;;22.70;99.90;;;;;;5026888;28;20294;-73
2021/06/18 05:11:53;;;;;;;12.05;8.60;;;22.70;99.90;;;;;;5022666;28;20207;-73
2021/06/18 05:14:20;;;;;;;13.15;8.43;;;22.80;99.90;;;;;;5029685;28;20286;-73
2021/06/18 05:16:47;;;;;;;13.25;8.48;;;23.00;99.90;;;;;;5033198;28;20222;-77
2021/06/18 05:19:14;;;;;;;11.95;8.73;;;22.80;99.90;;;;;;5025078;28;20199;-72
2021/06/18 05:21:42;;;;;;;12.10;8.02;;;23.00;99.90;;;;;;5026504;28;20246;-73
2021/06/18 05:24:10;;;;;;;8.60;7.63;;;23.40;99.90;;;;;;5024328;28;20623;-74
2021/06/18 05:26:37;;;;;;;12.43;8.50;;;23.70;99.90;;;;;;5026872;28;20239;-74
2021/06/18 05:29:04;;;;;;;10.00;8.68;;;23.60;99.90;;;;;;5024995;28;20547;-74
2021/06/18 05:31:32;;;;;;;12.20;8.20;;;23.30;99.90;;;;;;5023538;28;20208;-74
2021/06/18 05:33:59;;;;;;;13.98;8.68;;;23.30;99.90;;;;;;5027557;28;20208;-74
2021/06/18 05:36:26;;;;;;;13.00;9.30;;;23.20;99.90;;;;;;5023295;28;20230;-74
2021/06/18 05:38:54;;;;;;;11.70;9.40;;;23.60;99.90;;;;;;5028364;28;20206;-73
2021/06/18 05:41:21;;;;;;;14.52;9.23;;;23.30;99.90;;;;;;5027237;28;20207;-73
2021/06/18 05:43:48;;;;;;;11.90;8.75;;;24.00;99.90;;;;;;5025103;28;20667;-73
2021/06/18 05:46:16;;;;;;;12.52;8.75;;;25.30;99.90;;;;;;5029113;28;20619;-74
2021/06/18 05:48:43;;;;;;;13.00;9.52;;;24.60;99.90;;;;;;5027940;28;20203;-74
2021/06/18 05:51:10;;;;;;;9.73;8.73;;;24.10;99.90;;;;;;5027144;28;20211;-74
2021/06/18 05:53:37;;;;;;;12.60;8.32;;;24.10;99.90;;;;;;5023867;28;20215;-74
2021/06/18 05:56:06;;;;;;;11.32;8.32;;;24.20;99.90;;;;;;5026340;28;20211;-74
2021/06/18 05:58:33;;;;;;;13.02;8.68;;;24.80;99.90;;;;;;5026809;28;20199;-74
2021/06/18 06:01:00;;;;;;;10.25;8.77;;;24.10;99.90;;;;;;5031462;28;20281;-74
2021/06/18 06:03:27;;;;;;;11.80;8.50;;;24.10;99.90;;;;;;5031278;28;20223;-74
2021/06/18 06:05:54;;;;;;;11.57;8.23;;;24.00;99.90;;;;;;5029785;28;20564;-74
2021/06/18 06:08:21;;;;;;;13.82;8.52;;;23.80;99.90;;;;;;5025860;28;20204;-74
2021/06/18 06:10:49;;;;;;;10.25;8.48;;;23.90;99.90;;;;;;5023130;28;20207;-74
2021/06/18 06:13:19;;;;;;;9.95;8.77;;;23.80;99.90;;;;;;5022536;28;20575;-74
2021/06/18 06:15:47;;;;;;;10.35;8.35;;;23.80;99.90;;;;;;5020075;28;20236;-74
2021/06/18 06:18:15;;;;;;;11.35;7.97;;;23.80;99.90;;;;;;5025154;28;20700;-74
2021/06/18 06:20:42;;;;;;;10.55;8.45;;;24.00;99.90;;;;;;5025405;28;20821;-73
2021/06/18 06:23:10;;;;;;;8.43;7.60;;;24.10;99.90;;;;;;5030089;28;20227;-74
2021/06/18 06:25:38;;;;;;;14.73;8.52;;;24.30;99.90;;;;;;5023298;28;20262;-74
2021/06/18 06:28:05;;;;;;;9.57;8.55;;;24.40;99.90;;;;;;5029460;28;20297;-74
2021/06/18 06:30:34;;;;;;;10.48;8.40;;;24.30;99.90;;;;;;5023963;28;20207;-74
2021/06/18 06:33:01;;;;;;;9.82;8.63;;;24.20;99.90;;;;;;5023083;28;20270;-74
2021/06/18 06:35:28;;;;;;;14.10;9.02;;;24.20;99.90;;;;;;5027318;28;20216;-74
2021/06/18 06:37:56;;;;;;;10.23;8.95;;;24.20;99.90;;;;;;5018062;28;20267;-77
2021/06/18 06:40:23;;;;;;;13.45;8.38;;;24.10;99.90;;;;;;5028156;28;20211;-77
2021/06/18 06:42:52;;;;;;;9.93;8.93;;;24.10;99.90;;;;;;5025444;28;20810;-78
2021/06/18 06:45:19;;;;;;;10.65;9.20;;;24.00;99.90;;;;;;5025000;28;20595;-77
2021/06/18 06:47:48;;;;;;;9.77;8.52;;;24.10;99.90;;;;;;5029580;28;20203;-77
2021/06/18 06:50:15;;;;;;;10.85;8.68;;;24.40;99.90;;;;;;5025306;28;20211;-77
2021/06/18 06:52:42;;;;;;;11.63;8.57;;;24.50;99.90;;;;;;5027430;28;20204;-77
2021/06/18 06:55:11;;;;;;;11.10;8.38;;;24.50;99.90;;;;;;5021172;28;20250;-77
2021/06/18 06:57:38;;;;;;;11.18;8.65;;;24.60;99.90;;;;;;5030305;28;20227;-77
2021/06/18 07:00:06;;;;;;;9.45;8.45;;;24.70;99.90;;;;;;5026075;28;20249;-78
2021/06/18 07:02:34;;;;;;;9.80;8.05;;;24.80;99.90;;;;;;5024004;28;20635;-71
2021/06/18 07:05:02;;;;;;;11.00;8.77;;;24.80;99.90;;;;;;5026710;28;20720;-71
2021/06/18 07:07:29;;;;;;;9.50;8.50;;;24.60;99.90;;;;;;5028028;28;20216;-71
2021/06/18 07:09:56;;;;;;;10.50;8.55;;;24.50;99.90;;;;;;5029448;28;20196;-71
2021/06/18 07:12:23;;;;;;;9.40;8.38;;;24.60;99.90;;;;;;5027611;28;20203;-71
2021/06/18 07:14:50;;;;;;;14.90;8.70;;;24.80;99.90;;;;;;5029283;28;20204;-71
2021/06/18 07:17:17;;;;;;;11.63;9.45;;;24.80;99.90;;;;;;5029709;28;20231;-71
2021/06/18 07:19:45;;;;;;;10.52;8.98;;;25.00;99.90;;;;;;5029856;28;20253;-71
2021/06/18 07:22:16;;;;;;;9.20;8.25;;;25.10;99.90;;;;;;5031612;28;20250;-71
2021/06/18 07:24:43;;;;;;;10.23;8.88;;;25.30;99.90;;;;;;5020406;28;20208;-71
2021/06/18 07:27:10;;;;;;;9.15;8.25;;;25.70;99.90;;;;;;5031114;28;20250;-71
2021/06/18 07:29:37;;;;;;;12.30;9.30;;;25.60;99.90;;;;;;5023500;28;20204;-72
2021/06/18 07:32:05;;;;;;;25.40;9.30;;;25.70;99.90;;;;;;5023244;28;20195;-72
2021/06/18 07:34:32;;;;;;;11.75;8.43;;;25.90;99.90;;;;;;5026364;28;20211;-72
2021/06/18 07:36:59;;;;;;;9.30;8.30;;;25.70;99.90;;;;;;5025147;28;20227;-72
2021/06/18 07:39:27;;;;;;;11.75;8.20;;;25.70;99.90;;;;;;5028823;28;20203;-72
2021/06/18 07:41:54;;;;;;;11.52;8.65;;;25.80;99.90;;;;;;5030521;28;20589;-72
2021/06/18 07:44:21;;;;;;;9.70;8.57;;;26.00;99.90;;;;;;5018561;28;20254;-72
2021/06/18 07:46:48;;;;;;;8.93;8.02;;;26.10;99.90;;;;;;5011343;28;20630;-72
2021/06/18 07:49:15;;;;;;;11.93;8.07;;;25.90;99.90;;;;;;5011650;28;20267;-72
2021/06/18 07:51:43;;;;;;;10.88;8.48;;;26.20;99.90;;;;;;5027882;28;20231;-72
2021/06/18 07:54:10;;;;;;;9.40;8.45;;;26.20;99.90;;;;;;5025033;28;20265;-72
2021/06/18 07:56:42;;;;;;;9.63;8.48;;;26.30;99.90;;;;;;5074970;23;20286;-70
2021/06/18 07:59:09;;;;;;;13.32;8.73;;;26.40;99.90;;;;;;5086680;28;20210;-70
2021/06/18 08:01:36;;;;;;;12.38;9.25;;;26.40;99.90;;;;;;5085354;28;20274;-70
2021/06/18 08:04:02;;;;;;;10.00;8.95;;;26.40;99.90;;;;;;5088708;28;20227;-70
2021/06/18 08:06:29;;;;;;;9.13;8.20;;;26.60;99.90;;;;;;5084564;28;20560;-70
2021/06/18 08:08:56;;;;;;;9.25;7.85;;;26.60;99.90;;;;;;5082094;28;20201;-70
2021/06/18 08:11:23;;;;;;;10.05;8.40;;;26.80;99.90;;;;;;5086859;28;20201;-70
2021/06/18 08:13:51;;;;;;;13.95;9.18;;;26.90;99.90;;;;;;5087648;28;20201;-70
2021/06/18 08:16:18;;;;;;;14.52;9.45;;;26.90;99.90;;;;;;5090172;28;20673;-70
2021/06/18 08:18:45;;;;;;;17.00;9.75;;;27.00;99.90;;;;;;5087626;28;20218;-70
2021/06/18 08:21:12;;;;;;;10.32;8.77;;;27.00;99.90;;;;;;5087609;28;20201;-70
2021/06/18 08:23:39;;;;;;;15.40;8.73;;;27.10;99.90;;;;;;5084875;28;20210;-70
2021/06/18 08:26:06;;;;;;;19.38;9.57;;;27.10;99.90;;;;;;5085173;28;20202;-70
2021/06/18 08:28:33;;;;;;;17.42;9.05;;;27.20;99.90;;;;;;5083958;28;20208;-70
2021/06/18 08:31:04;;;;;;;10.90;8.95;;;27.20;99.90;;;;;;5087720;28;20673;-70
2021/06/18 08:33:32;;;;;;;14.00;8.90;;;27.30;99.90;;;;;;5089350;28;20284;-70
2021/06/18 08:35:59;;;;;;;12.43;8.60;;;27.40;99.90;;;;;;5089284;28;20202;-70
2021/06/18 08:38:26;;;;;;;12.00;8.52;;;27.40;99.90;;;;;;5088556;28;20222;-70
2021/06/18 08:40:53;;;;;;;13.82;8.80;;;27.40;99.90;;;;;;5088313;28;20663;-70
2021/06/18 08:43:21;;;;;;;14.25;9.93;;;27.40;99.90;;;;;;5090009;28;20319;-70
2021/06/18 08:45:48;;;;;;;12.02;8.80;;;27.80;99.90;;;;;;5085462;28;20199;-70
2021/06/18 08:48:16;;;;;;;16.10;9.07;;;28.10;99.90;;;;;;5081427;28;20209;-70
2021/06/18 08:50:45;;;;;;;12.15;8.15;;;28.50;99.90;;;;;;5090661;28;20523;-70
2021/06/18 08:53:13;;;;;;;14.65;9.15;;;28.80;99.90;;;;;;5090640;28;20251;-70
2021/06/18 08:55:40;;;;;;;14.57;9.82;;;29.10;99.90;;;;;;5088469;28;20198;-70
2021/06/18 08:58:07;;;;;;;19.10;9.80;;;29.20;99.90;;;;;;5090259;28;20278;-70
2021/06/18 09:00:34;;;;;;;10.43;9.10;;;29.40;99.90;;;;;;5087790;28;20647;-70
2021/06/18 09:03:21;;;;;;;14.02;9.27;;;29.60;99.90;;;;;;5086564;28;20288;-70
2021/06/18 09:05:49;;;;;;;13.35;8.77;;;29.80;99.90;;;;;;5087396;28;20216;-70
2021/06/18 09:08:20;;;;;;;10.45;8.60;;;30.10;99.90;;;;;;5086002;28;20210;-70
2021/06/18 09:10:47;;;;;;;10.10;8.45;;;30.00;99.90;;;;;;5092488;28;20201;-70
2021/06/18 09:13:16;;;;;;;10.20;8.40;;;30.20;99.90;;;;;;5092296;28;20210;-70
2021/06/18 09:15:46;;;;;;;12.70;9.63;;;30.50;99.90;;;;;;5084765;28;20612;-70
2021/06/18 09:18:32;;;;;;;10.43;8.90;;;30.70;99.90;;;;;;5088903;28;20213;-70
2021/06/18 09:21:23;;;;;;;8.93;8.10;;;30.70;99.90;;;;;;5087566;28;20218;-73
2021/06/18 09:23:52;;;;;;;11.73;8.60;;;30.90;99.90;;;;;;5090671;28;20198;-70
2021/06/18 09:26:28;;;;;;;12.38;9.65;;;30.90;99.90;;;;;;5083086;28;20297;-70
2021/06/18 09:29:08;;;;;;;11.52;9.13;;;31.20;99.90;;;;;;5087752;28;20655;-70
2021/06/18 09:31:37;;;;;;;11.00;8.57;;;31.50;99.90;;;;;;5083424;28;20281;-70
2021/06/18 09:34:06;;;;;;;9.02;8.00;;;31.50;99.90;;;;;;5083620;28;20201;-70
2021/06/18 09:36:34;;;;;;;12.30;8.48;;;31.60;99.90;;;;;;5086570;28;20206;-70
2021/06/18 09:39:04;;;;;;;12.50;7.95;;;32.00;99.90;;;;;;5087800;28;20312;-70
2021/06/18 09:41:38;;;;;;;10.73;8.23;;;31.90;99.90;;;;;;5085734;28;20197;-70
2021/06/18 09:44:07;;;;;;;8.80;7.95;;;31.90;99.90;;;;;;5086167;28;20210;-70
2021/06/18 09:46:46;;;;;;;10.63;8.40;;;31.90;99.90;;;;;;5089045;28;20201;-70
2021/06/18 09:49:15;;;;;;;9.57;7.90;;;32.10;99.90;;;;;;5085713;28;20212;-70
2021/06/18 09:51:57;;;;;;;10.20;7.97;;;32.30;99.90;;;;;;5084783;28;20259;-70
2021/06/18 09:54:31;;;;;;;10.00;7.93;;;32.50;99.90;;;;;;5086222;28;20224;-70
2021/06/18 09:57:05;;;;;;;7.75;7.05;;;32.50;99.90;;;;;;5088048;28;20232;-70
2021/06/18 09:59:44;;;;;;;10.18;7.63;;;32.90;99.90;;;;;;5086320;28;20193;-70
2021/06/18 10:02:10;;;;;;;9.55;7.68;;;33.50;99.90;;;;;;5083028;28;20224;-70
2021/06/18 10:04:38;;;;;;;11.07;7.60;;;33.40;99.90;;;;;;5079564;28;20639;-70
2021/06/18 10:07:07;;;;;;;10.68;7.65;;;33.50;99.90;;;;;;5085572;28;20212;-70
2021/06/18 10:09:34;;;;;;;8.80;7.85;;;33.10;99.90;;;;;;5090073;28;20194;-70
2021/06/18 10:12:02;;;;;;;9.48;7.78;;;32.90;99.90;;;;;;5076364;28;20202;-70
2021/06/18 10:14:29;;;;;;;9.25;7.22;;;32.80;99.90;;;;;;5073565;28;20204;-71
2021/06/18 10:16:56;;;;;;;10.27;7.15;;;33.20;99.90;;;;;;5082474;28;20197;-70
2021/06/18 10:19:23;;;;;;;11.95;7.18;;;33.10;99.90;;;;;;5078313;28;20573;-69
2021/06/18 10:21:56;;;;;;;8.05;7.22;;;32.90;99.90;;;;;;5083198;28;20197;-69
2021/06/18 10:24:33;;;;;;;9.90;7.43;;;33.50;99.90;;;;;;5077762;28;20656;-69
2021/06/18 10:27:01;;;;;;;11.73;7.80;;;33.50;99.90;;;;;;5082697;28;20199;-69
2021/06/18 10:29:33;;;;;;;11.88;7.32;;;33.60;99.90;;;;;;5078403;28;20201;-69
2021/06/18 10:32:31;;;;;;;8.35;7.55;;;33.70;99.90;;;;;;5079733;28;20223;-69
2021/06/18 10:34:59;;;;;;;9.30;6.85;;;33.40;99.90;;;;;;5078947;28;20218;-69
2021/06/18 10:37:29;;;;;;;12.60;6.97;;;33.40;99.90;;;;;;5084609;28;20202;-69
2021/06/18 10:40:04;;;;;;;12.02;7.65;;;33.50;99.90;;;;;;5076791;28;20202;-69
2021/06/18 10:42:31;;;;;;;7.13;6.43;;;33.70;99.90;;;;;;5081193;28;20208;-69
2021/06/18 10:44:59;;;;;;;9.05;6.38;;;33.60;99.90;;;;;;5081061;28;20217;-69
2021/06/18 10:47:57;;;;;;;7.05;6.35;;;33.70;99.90;;;;;;5078193;28;20617;-69
2021/06/18 10:50:49;;;;;;;7.70;6.13;;;33.60;99.90;;;;;;5077387;28;20618;-69
2021/06/18 10:53:23;;;;;;;6.80;6.30;;;33.70;99.90;;;;;;5082623;28;20194;-69
2021/06/18 10:55:54;;;;;;;7.68;6.10;;;33.70;99.90;;;;;;5082449;28;20206;-69
2021/06/18 10:58:21;;;;;;;8.52;6.32;;;33.70;99.90;;;;;;5082041;28;20222;-69
2021/06/18 11:00:48;;;;;;;10.70;6.38;;;33.50;99.90;;;;;;5082423;28;20206;-70
2021/06/18 11:03:18;;;;;;;7.38;6.32;;;33.70;99.90;;;;;;5082771;28;20562;-69
2021/06/18 11:05:47;;;;;;;6.78;6.05;;;33.30;99.90;;;;;;5084232;28;20263;-69
2021/06/18 11:08:45;;;;;;;8.00;6.60;;;33.60;99.90;;;;;;5084379;28;20189;-69
2021/06/18 11:11:28;;;;;;;9.07;6.20;;;33.50;99.90;;;;;;5084359;28;20228;-69
2021/06/18 11:14:04;;;;;;;8.45;6.00;;;33.90;99.90;;;;;;5075933;28;20276;-69
2021/06/18 11:16:35;;;;;;;6.80;6.20;;;34.10;99.90;;;;;;5088314;28;20197;-69
2021/06/18 11:19:22;;;;;;;7.38;6.60;;;33.50;99.90;;;;;;5081323;28;20305;-69
2021/06/18 11:21:49;;;;;;;8.95;6.10;;;33.70;99.90;;;;;;5085427;28;20209;-69
2021/06/18 11:24:34;;;;;;;7.78;6.40;;;33.80;99.90;;;;;;5083926;28;20573;-69
2021/06/18 11:27:25;;;;;;;6.35;5.75;;;33.90;99.90;;;;;;5079658;28;20655;-69
2021/06/18 11:30:26;;;;;;;7.13;5.88;;;34.60;99.90;;;;;;5084022;28;20202;-69
2021/06/18 11:32:53;;;;;;;8.38;6.40;;;34.70;99.90;;;;;;5084962;28;20651;-69
2021/06/18 11:35:40;;;;;;;7.25;5.93;;;34.80;99.90;;;;;;5083031;28;20199;-69
2021/06/18 11:38:15;;;;;;;7.85;6.40;;;34.50;99.90;;;;;;5083693;28;20229;-69
2021/06/18 11:40:42;;;;;;;8.05;6.28;;;35.00;99.90;;;;;;5083468;28;20205;-69
2021/06/18 11:43:10;;;;;;;7.03;6.40;;;34.70;99.90;;;;;;5082368;28;20316;-70
2021/06/18 11:45:39;;;;;;;6.47;5.97;;;34.70;99.90;;;;;;5083323;28;20201;-69
2021/06/18 11:48:12;;;;;;;9.55;6.65;;;35.10;99.90;;;;;;5083538;28;20198;-70
2021/06/18 11:50:39;;;;;;;7.65;6.95;;;35.70;99.90;;;;;;5084851;28;20289;-69
2021/06/18 11:53:06;;;;;;;8.35;7.53;;;36.40;99.90;;;;;;5087750;28;20311;-69
2021/06/18 11:55:33;;;;;;;7.72;6.80;;;36.00;99.90;;;;;;5085488;28;20201;-69
2021/06/18 11:58:00;;;;;;;9.20;8.13;;;36.30;99.90;;;;;;5079428;28;20224;-70
2021/06/18 12:00:32;;;;;;;6.28;5.60;;;36.70;99.90;;;;;;5079432;28;20198;-69
2021/06/18 12:02:59;;;;;;;7.63;6.85;;;37.00;99.90;;;;;;5080354;28;20636;-70
2021/06/18 12:05:31;;;;;;;6.90;6.20;;;37.20;99.90;;;;;;5084226;28;20228;-69
2021/06/18 12:07:58;;;;;;;8.38;6.15;;;37.20;99.90;;;;;;5085034;28;20209;-69
2021/06/18 12:10:27;;;;;;;6.60;6.00;;;36.40;99.90;;;;;;5078383;28;20543;-69
2021/06/18 12:12:56;;;;;;;7.68;5.80;;;35.90;99.90;;;;;;5079281;28;20789;-69
2021/06/18 12:15:26;;;;;;;6.22;5.63;;;35.50;99.90;;;;;;5073922;28;20202;-69
2021/06/18 12:17:57;;;;;;;6.85;6.13;;;35.40;99.90;;;;;;5074093;28;20968;-69
2021/06/18 12:20:30;;;;;;;7.30;6.60;;;35.60;99.90;;;;;;5081219;28;20209;-69
2021/06/18 12:22:58;;;;;;;6.95;6.28;;;36.20;99.90;;;;;;5082400;28;20214;-69
2021/06/18 12:25:26;;;;;;;6.95;6.35;;;36.30;99.90;;;;;;5089856;28;20202;-69
2021/06/18 12:27:56;;;;;;;6.47;5.88;;;36.40;99.90;;;;;;5085290;28;20197;-70
2021/06/18 12:30:24;;;;;;;7.20;5.80;;;35.90;99.90;;;;;;5083269;28;20205;-69
2021/06/18 12:32:53;;;;;;;10.32;6.60;;;35.50;99.90;;;;;;5088076;28;20214;-70
2021/06/18 12:35:22;;;;;;;6.32;5.75;;;34.90;99.90;;;;;;5081690;28;20202;-70
2021/06/18 12:37:51;;;;;;;6.95;6.20;;;34.90;99.90;;;;;;5081944;28;20210;-70
2021/06/18 12:40:26;;;;;;;7.88;6.40;;;34.60;99.90;;;;;;5082494;28;20275;-70
2021/06/18 12:42:54;;;;;;;8.55;6.22;;;34.70;99.90;;;;;;5083534;28;20221;-69
2021/06/18 12:45:23;;;;;;;9.57;6.22;;;35.20;99.90;;;;;;5078528;28;20224;-69
2021/06/18 12:47:51;;;;;;;8.27;6.07;;;35.60;99.90;;;;;;5076511;28;20197;-70
2021/06/18 12:50:25;;;;;;;6.85;6.25;;;35.30;99.90;;;;;;5081299;28;20209;-70
2021/06/18 12:52:54;;;;;;;6.45;5.85;;;35.20;99.90;;;;;;5080975;28;20212;-70